Terminal Aerodrome Forecast
Issued by NWS

Home | Current Version | Previous Version | Text Only | Print | Product List | Glossary On
Versions: 1 2 3 4 5 6 7 8 9 10 11 12 13 14
655
FTUS44 KJAN 250523
TAFHKS
TAF
KHKS 250523Z 2506/2606 00000KT 6SM BR FEW250
     FM251000 00000KT 4SM BR FEW025
     FM251400 32003KT P6SM SCT250
     FM260100 35004KT P6SM VCSH BKN060=

USA.gov is the U.S. government's official web portal to all federal, state and local government web resources and services.